Time;durP1;ratioP1;P1;durP2;ratioP2;P2;SDS_P1;SDS_P2;PMS_P1;PMS_P2;Temp;Humidity;BMP_temperature;BMP_pressure;BME280_temperature;BME280_humidity;BME280_pressure;Samples;Min_cycle;Max_cycle;Signal;HPM_P1;HPM_P2
2022/11/21 05:22:32;;;;;;;0.32;0.32;;;;;;;5.63;100.00;99368.53;5097921;28;20109;-68
2022/11/21 05:24:58;;;;;;;1.05;0.80;;;;;;;5.66;100.00;99368.19;5109445;28;20078;-69
2022/11/21 05:27:23;;;;;;;0.95;0.75;;;;;;;5.68;100.00;99380.25;5109289;28;20036;-69
2022/11/21 05:29:49;;;;;;;1.38;0.70;;;;;;;5.73;100.00;99380.56;5109309;28;20089;-69
2022/11/21 05:32:15;;;;;;;2.40;0.98;;;;;;;5.75;100.00;99379.59;5108906;28;20093;-69
2022/11/21 05:34:40;;;;;;;0.77;0.70;;;;;;;5.82;100.00;99380.59;5119601;22;20033;-71
2022/11/21 05:37:05;;;;;;;2.20;0.88;;;;;;;5.86;100.00;99380.09;5088954;28;20032;-70
2022/11/21 05:39:31;;;;;;;1.55;1.00;;;;;;;5.91;100.00;99383.09;5088932;28;20463;-71
2022/11/21 05:41:56;;;;;;;1.65;0.80;;;;;;;5.94;100.00;99374.88;5088607;28;20040;-71
2022/11/21 05:44:21;;;;;;;2.10;0.60;;;;;;;5.94;100.00;99377.50;5088814;28;20094;-73
2022/11/21 05:46:47;;;;;;;0.50;0.50;;;;;;;5.98;100.00;99378.00;5088803;28;20071;-70
2022/11/21 05:49:12;;;;;;;0.57;0.45;;;;;;;5.98;100.00;99372.69;5070575;28;20039;-72
2022/11/21 05:51:38;;;;;;;3.05;0.90;;;;;;;5.97;100.00;99363.94;5088288;28;20040;-71
2022/11/21 05:54:04;;;;;;;1.65;0.75;;;;;;;5.93;100.00;99357.34;5088546;28;20120;-72
2022/11/21 05:56:30;;;;;;;3.17;0.98;;;;;;;5.94;100.00;99363.47;5088724;28;20039;-71
2022/11/21 05:58:56;;;;;;;0.70;0.68;;;;;;;5.92;100.00;99363.59;5088661;28;20028;-71
2022/11/21 06:04:07;;;;;;;1.15;1.00;;;;;;;5.88;100.00;99364.91;5088502;28;20157;-70
2022/11/21 06:06:32;;;;;;;0.52;0.52;;;;;;;5.89;100.00;99360.47;5088434;28;20035;-70
2022/11/21 06:08:58;;;;;;;0.77;0.63;;;;;;;5.86;100.00;99358.13;5088368;28;20028;-54
2022/11/21 06:11:24;;;;;;;1.55;0.85;;;;;;;5.88;100.00;99374.66;5087775;28;20525;-64
2022/11/21 06:13:50;;;;;;;2.70;0.85;;;;;;;5.83;100.00;99375.16;5069749;28;20040;-65
2022/11/21 06:16:18;;;;;;;5.88;1.35;;;;;;;5.85;100.00;99372.34;5088040;28;20069;-64
2022/11/21 06:18:46;;;;;;;0.70;0.70;;;;;;;5.86;100.00;99369.53;5087926;28;20052;-64
2022/11/21 06:21:13;;;;;;;;;;;;;;;5.89;100.00;99378.97;5087924;28;20119;-64
2022/11/21 06:23:39;;;;;;;1.30;0.98;;;;;;;5.89;100.00;99381.59;5087903;28;19916;-64
2022/11/21 06:26:06;;;;;;;1.35;0.77;;;;;;;5.85;100.00;99372.34;5088013;28;20066;-64
2022/11/21 06:28:35;;;;;;;1.73;0.93;;;;;;;5.85;100.00;99373.16;5087668;28;20043;-64
2022/11/21 06:31:04;;;;;;;2.53;1.10;;;;;;;5.80;100.00;99374.63;5087322;28;20430;-64
2022/11/21 06:33:29;;;;;;;1.15;0.95;;;;;;;5.81;100.00;99374.50;5076410;28;20029;-64
2022/11/21 06:35:55;;;;;;;4.65;1.20;;;;;;;5.80;100.00;99370.16;5074069;28;20040;-64
2022/11/21 06:38:20;;;;;;;1.23;1.13;;;;;;;5.79;100.00;99375.63;5074064;28;20044;-64
2022/11/21 06:40:46;;;;;;;1.70;0.88;;;;;;;5.81;100.00;99381.59;5073979;28;20547;-64
2022/11/21 06:43:11;;;;;;;1.67;0.75;;;;;;;5.80;100.00;99391.31;5074121;28;20048;-64
2022/11/21 06:45:37;;;;;;;3.90;1.10;;;;;;;5.79;100.00;99392.31;5074112;28;20082;-64
2022/11/21 06:48:02;;;;;;;4.28;1.05;;;;;;;5.82;100.00;99392.00;5073906;28;20035;-64
2022/11/21 06:50:30;;;;;;;1.63;0.80;;;;;;;5.88;100.00;99387.88;5073533;28;20055;-63
2022/11/21 06:52:59;;;;;;;1.27;0.77;;;;;;;5.88;100.00;99385.25;5073902;28;20040;-64
2022/11/21 06:55:26;;;;;;;5.63;1.02;;;;;;;5.87;100.00;99387.06;5073973;28;20379;-64
2022/11/21 06:57:52;;;;;;;0.93;0.90;;;;;;;5.85;100.00;99388.19;5073897;28;20036;-64
2022/11/21 07:00:19;;;;;;;1.13;0.80;;;;;;;5.82;100.00;99389.34;5073428;28;20123;-63
2022/11/21 07:02:45;;;;;;;2.75;1.00;;;;;;;5.82;100.00;99393.81;5073618;28;20082;-63
2022/11/21 07:05:11;;;;;;;1.73;1.00;;;;;;;5.85;100.00;99390.84;5073587;28;20040;-64
2022/11/21 07:07:36;;;;;;;5.07;1.23;;;;;;;5.82;100.00;99385.88;5073626;28;20063;-64
2022/11/21 07:10:02;;;;;;;4.97;0.93;;;;;;;5.83;100.00;99390.19;5073437;28;20131;-64
2022/11/21 07:15:11;;;;;;;1.48;0.95;;;;;;;5.89;100.00;99393.00;5073369;28;20036;-64
2022/11/21 07:17:37;;;;;;;0.95;0.82;;;;;;;5.86;100.00;99389.84;5073829;28;20477;-64
2022/11/21 07:20:02;;;;;;;6.45;1.05;;;;;;;5.89;100.00;99385.06;5073157;28;20127;-64
2022/11/21 07:22:28;;;;;;;3.30;1.30;;;;;;;5.95;100.00;99388.91;5073020;28;20074;-64
2022/11/21 07:24:53;;;;;;;9.00;0.98;;;;;;;5.99;100.00;99392.84;5073303;28;20036;-64
2022/11/21 07:27:19;;;;;;;1.42;1.08;;;;;;;6.01;100.00;99390.06;5073263;28;20500;-64
2022/11/21 07:29:44;;;;;;;9.02;1.38;;;;;;;6.09;100.00;99392.72;5073218;28;20524;-65
2022/11/21 07:32:09;;;;;;;2.08;1.10;;;;;;;6.14;100.00;99385.13;5054639;28;20075;-64
2022/11/21 07:34:35;;;;;;;2.35;1.33;;;;;;;6.16;100.00;99391.06;5073034;28;20072;-64
2022/11/21 07:37:00;;;;;;;2.75;1.70;;;;;;;6.16;100.00;99388.41;5073110;28;20443;-64
2022/11/21 07:39:26;;;;;;;1.83;1.23;;;;;;;6.16;100.00;99388.41;5073110;28;20687;-63
2022/11/21 07:41:51;;;;;;;1.17;0.98;;;;;;;6.23;100.00;99392.03;5072729;28;20396;-64
2022/11/21 07:44:16;;;;;;;3.38;1.00;;;;;;;6.23;100.00;99392.03;5071997;28;20033;-64
2022/11/21 07:46:42;;;;;;;4.30;0.93;;;;;;;6.21;100.00;99389.56;5072794;28;20713;-63
2022/11/21 07:49:07;;;;;;;3.28;1.10;;;;;;;6.24;100.00;99393.69;5054944;28;20044;-63
2022/11/21 07:51:32;;;;;;;3.15;1.25;;;;;;;6.32;100.00;99398.16;5072551;28;20534;-64
2022/11/21 07:53:58;;;;;;;1.88;1.10;;;;;;;6.34;100.00;99389.06;5054832;28;20166;-63
2022/11/21 07:56:25;;;;;;;1.95;1.52;;;;;;;6.33;100.00;99395.34;5072614;28;20520;-64
2022/11/21 07:58:51;;;;;;;4.43;1.97;;;;;;;6.44;100.00;99394.16;5072637;28;20120;-64
2022/11/21 08:01:17;;;;;;;1.10;0.98;;;;;;;6.46;100.00;99381.63;5072274;28;20651;-64
2022/11/21 08:03:42;;;;;;;1.95;0.90;;;;;;;6.50;100.00;99394.31;5072527;28;20036;-63
2022/11/21 08:06:11;;;;;;;3.10;1.00;;;;;;;6.54;100.00;99386.91;5072720;28;20114;-65
2022/11/21 08:08:36;;;;;;;2.20;1.17;;;;;;;6.59;100.00;99387.22;5072346;28;20093;-63
2022/11/21 08:11:06;;;;;;;1.58;1.08;;;;;;;6.64;100.00;99387.53;5072005;28;20127;-62
2022/11/21 08:13:32;;;;;;;3.95;1.00;;;;;;;6.74;100.00;99382.88;5072151;28;20037;-59
2022/11/21 08:15:57;;;;;;;3.97;1.20;;;;;;;6.85;100.00;99380.88;5072145;28;20024;-63
2022/11/21 08:18:23;;;;;;;0.95;0.88;;;;;;;6.96;100.00;99372.53;5071045;28;20041;-62
2022/11/21 08:20:48;;;;;;;1.75;1.02;;;;;;;7.12;100.00;99380.44;5071925;28;20056;-63
2022/11/21 08:23:14;;;;;;;1.25;0.90;;;;;;;7.19;100.00;99368.16;5072096;28;20488;-63
2022/11/21 08:25:41;;;;;;;5.10;2.00;;;;;;;7.28;100.00;99361.81;5072126;28;20047;-63
2022/11/21 08:28:09;;;;;;;5.80;1.38;;;;;;;7.33;100.00;99379.84;5037403;28;20211;-64
2022/11/21 08:30:35;;;;;;;2.78;1.00;;;;;;;7.33;100.00;99359.47;5071617;28;20139;-64
2022/11/21 08:33:01;;;;;;;2.03;1.10;;;;;;;7.34;100.00;99355.00;5072063;28;20485;-64
2022/11/21 08:35:27;;;;;;;5.57;1.10;;;;;;;7.40;100.00;99350.84;5071711;28;20067;-65
2022/11/21 08:37:59;;;;;;;3.80;1.10;;;;;;;7.49;100.00;99353.25;5071881;28;20064;-64
2022/11/21 08:40:26;;;;;;;3.95;1.40;;;;;;;7.52;100.00;99360.03;5071468;28;20044;-64
2022/11/21 08:42:58;;;;;;;6.55;0.90;;;;;;;7.48;100.00;99356.06;5071812;28;20442;-65
2022/11/21 08:45:24;;;;;;;1.90;1.00;;;;;;;7.42;100.00;99354.94;5071573;28;20107;-64
2022/11/21 08:47:50;;;;;;;1.95;1.00;;;;;;;7.44;100.00;99350.31;5071798;28;20036;-64
2022/11/21 08:50:16;;;;;;;4.03;1.05;;;;;;;7.37;100.00;99343.22;5071292;28;20032;-63
2022/11/21 08:52:41;;;;;;;4.07;0.88;;;;;;;7.27;100.00;99338.97;5071677;28;20037;-64
2022/11/21 08:55:07;;;;;;;3.45;0.80;;;;;;;7.22;100.00;99341.31;5071927;28;20052;-65
2022/11/21 08:57:37;;;;;;;1.10;0.70;;;;;;;7.15;100.00;99340.34;5071521;28;20063;-63
2022/11/21 09:00:03;;;;;;;1.42;0.70;;;;;;;7.00;100.00;99334.16;5071490;28;20043;-64
2022/11/21 09:02:29;;;;;;;0.43;0.43;;;;;;;6.94;100.00;99334.84;5071394;28;20030;-64
2022/11/21 09:04:54;;;;;;;1.88;0.82;;;;;;;6.85;100.00;99342.00;5071457;28;20041;-64
2022/11/21 09:07:19;;;;;;;4.22;0.90;;;;;;;6.83;100.00;99345.78;5071491;28;20044;-64
2022/11/21 09:09:45;;;;;;;0.60;0.50;;;;;;;6.81;100.00;99361.84;5071496;28;20048;-65
2022/11/21 09:12:10;;;;;;;2.78;0.85;;;;;;;6.73;100.00;99361.88;5053182;28;20098;-64
2022/11/21 09:20:04;;;;;;;2.20;0.88;;;;;;;6.43;100.00;99351.03;5071167;28;20036;-62
2022/11/21 09:22:29;;;;;;;2.20;0.57;;;;;;;6.43;100.00;99347.56;5071201;28;20039;-63
2022/11/21 09:24:54;;;;;;;0.47;0.47;;;;;;;6.44;100.00;99349.19;5071607;28;20048;-65
2022/11/21 09:27:20;;;;;;;0.75;0.75;;;;;;;6.36;100.00;99336.00;5071241;28;20135;-63
2022/11/21 09:29:45;;;;;;;2.63;1.00;;;;;;;6.34;100.00;99330.88;5071255;28;20086;-65
2022/11/21 09:32:10;;;;;;;2.35;0.73;;;;;;;6.38;100.00;99328.69;5053032;28;20485;-65
2022/11/21 09:34:36;;;;;;;3.03;1.00;;;;;;;6.29;100.00;99322.63;5071087;28;20041;-65
2022/11/21 09:37:01;;;;;;;3.28;0.98;;;;;;;6.29;100.00;99314.69;5071179;28;20041;-65
2022/11/21 09:39:27;;;;;;;4.60;1.15;;;;;;;6.32;100.00;99310.84;5071186;28;20029;-65
2022/11/21 09:42:13;;;;;;;3.45;0.70;;;;;;;6.42;100.00;99296.47;5070811;28;20082;-65
2022/11/21 09:44:44;;;;;;;3.88;0.95;;;;;;;6.56;100.00;99297.56;5071035;28;20040;-63
2022/11/21 09:47:18;;;;;;;1.42;1.00;;;;;;;6.60;100.00;99296.25;5071171;28;20421;-63
2022/11/21 09:49:48;;;;;;;0.55;0.55;;;;;;;6.69;100.00;99294.38;5071111;28;20048;-65
2022/11/21 09:52:16;;;;;;;2.47;0.93;;;;;;;6.76;100.00;99293.53;5052847;28;20036;-65
2022/11/21 09:54:49;;;;;;;4.60;0.93;;;;;;;6.93;100.00;99294.28;5071091;28;20359;-65
2022/11/21 09:57:20;;;;;;;0.77;0.70;;;;;;;7.12;100.00;99290.41;5071075;28;20145;-63
2022/11/21 09:59:47;;;;;;;4.75;1.15;;;;;;;7.35;100.00;99277.16;5070927;28;20060;-64
2022/11/21 10:02:19;;;;;;;1.75;0.95;;;;;;;7.67;100.00;99269.97;5071184;28;20473;-65
2022/11/21 10:04:46;;;;;;;0.60;0.52;;;;;;;8.15;100.00;99266.06;5053159;28;20064;-65
2022/11/21 10:07:27;;;;;;;1.27;0.80;;;;;;;8.97;100.00;99266.78;5071154;28;20051;-64
2022/11/21 10:10:02;;;;;;;1.70;0.80;;;;;;;9.99;100.00;99263.06;5074678;28;20032;-64
2022/11/21 10:12:38;;;;;;;1.38;0.85;;;;;;;10.72;94.94;99259.03;5074334;28;20036;-66
2022/11/21 10:15:20;;;;;;;1.88;0.70;;;;;;;11.41;89.06;99266.06;5074582;28;20036;-65
2022/11/21 10:17:48;;;;;;;1.10;0.50;;;;;;;11.58;88.40;99259.28;5074816;28;20542;-62
2022/11/21 10:20:48;;;;;;;0.80;0.73;;;;;;;11.58;87.04;99253.94;5074288;28;20024;-63
2022/11/21 10:23:42;;;;;;;1.83;0.95;;;;;;;11.33;88.32;99253.69;5073692;28;20110;-64
2022/11/21 10:26:30;;;;;;;2.78;0.90;;;;;;;11.84;89.41;99241.69;5074529;28;20040;-60
2022/11/21 10:29:11;;;;;;;2.42;1.40;;;;;;;12.33;87.02;99235.06;5074367;28;20448;-63
2022/11/21 10:31:39;;;;;;;1.75;1.00;;;;;;;13.13;82.75;99230.25;5073976;28;20446;-62
2022/11/21 10:34:28;;;;;;;2.03;0.70;;;;;;;14.04;76.83;99227.94;5074118;28;20396;-63
2022/11/21 10:37:02;;;;;;;2.85;0.90;;;;;;;14.48;73.34;99217.25;5074248;28;20036;-63
2022/11/21 10:39:40;;;;;;;1.58;0.93;;;;;;;14.79;68.78;99213.56;5074122;28;20032;-63
2022/11/21 10:42:28;;;;;;;1.75;0.90;;;;;;;15.21;66.24;99211.75;5073889;28;20024;-63
2022/11/21 10:47:39;;;;;;;2.90;0.75;;;;;;;16.76;61.10;99203.34;5073886;28;20045;-63
2022/11/21 10:50:22;;;;;;;2.42;1.00;;;;;;;17.08;59.23;99181.31;5073746;28;20060;-64
2022/11/21 10:52:49;;;;;;;1.50;0.80;;;;;;;17.26;55.96;99185.69;5088793;28;20036;-64
2022/11/21 10:55:16;;;;;;;0.88;0.70;;;;;;;17.06;56.01;99170.00;5094100;28;20497;-64
2022/11/21 10:57:47;;;;;;;2.92;0.73;;;;;;;16.78;55.70;99162.75;5094039;28;20046;-64
2022/11/21 11:00:13;;;;;;;2.45;1.10;;;;;;;16.13;57.10;99160.31;5094098;28;20672;-64
2022/11/21 11:02:40;;;;;;;1.48;0.73;;;;;;;14.73;64.51;99164.34;5093934;28;20036;-64
2022/11/21 11:05:22;;;;;;;1.40;0.73;;;;;;;15.00;62.06;99155.97;5094169;28;20063;-62
2022/11/21 11:08:13;;;;;;;2.22;1.00;;;;;;;14.46;64.24;99142.41;5093987;28;20106;-64
2022/11/21 11:11:02;;;;;;;1.58;1.08;;;;;;;14.69;64.68;99141.72;5089773;28;20062;-66
2022/11/21 11:15:57;;;;;;;2.70;0.85;;;;;;;15.91;61.66;99128.69;5093800;28;20036;-65
2022/11/21 11:18:23;;;;;;;3.17;1.15;;;;;;;16.17;59.01;99130.06;5093730;28;20024;-65
2022/11/21 11:20:49;;;;;;;4.18;0.88;;;;;;;14.88;61.02;99129.91;5093359;28;20051;-64
2022/11/21 11:23:24;;;;;;;3.30;1.58;;;;;;;13.97;64.33;99113.94;5093554;28;20107;-65
2022/11/21 11:25:51;;;;;;;2.03;1.00;;;;;;;12.80;71.36;99115.50;5093483;28;20500;-65
2022/11/21 11:28:19;;;;;;;;;;;;;;;12.06;75.69;99114.16;5093909;28;20067;-65
2022/11/21 11:30:46;;;;;;;5.32;1.23;;;;;;;12.07;77.57;99105.16;5093213;28;19916;-65
2022/11/21 11:33:30;;;;;;;1.25;0.98;;;;;;;11.62;79.41;99103.16;5093737;28;20066;-65
2022/11/21 11:36:22;;;;;;;4.68;1.65;;;;;;;12.04;78.73;99098.38;5093196;28;20044;-66
2022/11/21 11:38:54;;;;;;;2.25;1.58;;;;;;;13.19;72.25;99099.19;5051429;28;20047;-66
2022/11/21 11:47:59;;;;;;;2.72;1.45;;;;;;;12.86;70.93;99079.88;5093269;28;20374;-66
2022/11/21 11:50:36;;;;;;;3.97;1.80;;;;;;;12.46;74.67;99091.63;5093272;28;20043;-66
2022/11/21 11:53:17;;;;;;;3.63;1.90;;;;;;;12.06;77.39;99084.81;5093384;28;20089;-66
2022/11/21 11:55:53;;;;;;;6.65;1.38;;;;;;;11.65;78.23;99077.91;5074805;28;20043;-66
2022/11/21 11:58:39;;;;;;;3.17;1.52;;;;;;;11.27;81.68;99069.75;5092959;28;20040;-65
2022/11/21 12:01:17;;;;;;;5.55;1.20;;;;;;;11.29;83.02;99062.38;5092898;28;20036;-66
2022/11/21 12:03:58;;;;;;;6.00;1.73;;;;;;;11.05;86.23;99050.50;5092866;28;20031;-66
2022/11/21 12:06:28;;;;;;;1.30;0.90;;;;;;;10.84;87.85;99048.84;5092935;28;20511;-66
2022/11/21 12:09:17;;;;;;;4.30;1.25;;;;;;;10.71;86.65;99048.84;5092733;28;20047;-65
2022/11/21 12:12:06;;;;;;;3.58;1.08;;;;;;;11.31;86.43;99037.16;5092225;28;20028;-65
2022/11/21 12:18:10;;;;;;;2.22;1.30;;;;;;;12.84;77.02;99028.50;5092539;28;20508;-65
2022/11/21 12:20:50;;;;;;;2.85;1.58;;;;;;;12.72;75.90;99009.69;5081035;28;20261;-64
2022/11/21 12:23:17;;;;;;;5.50;1.55;;;;;;;12.94;75.64;99007.47;5092416;28;20035;-64
2022/11/21 12:26:24;;;;;;;3.85;1.02;;;;;;;12.72;79.28;98999.00;5092328;28;20032;-64
2022/11/21 12:28:49;;;;;;;4.32;1.35;;;;;;;12.94;76.27;98986.06;5091984;28;20489;-66
2022/11/21 12:31:30;;;;;;;2.75;1.17;;;;;;;12.62;66.76;98982.63;5091447;28;20042;-65
2022/11/21 12:34:23;;;;;;;4.95;1.20;;;;;;;12.63;65.10;98987.75;5092076;28;20439;-64
2022/11/21 12:36:53;;;;;;;1.88;0.88;;;;;;;12.87;65.47;98975.44;5092076;28;20031;-65
2022/11/21 12:39:53;;;;;;;6.25;0.82;;;;;;;12.88;63.50;98981.59;5073948;28;20457;-64
2022/11/21 12:42:49;;;;;;;2.67;1.00;;;;;;;12.64;61.04;98973.34;5074016;28;20044;-64
2022/11/21 12:45:55;;;;;;;5.22;1.05;;;;;;;12.48;62.79;98964.03;5092065;28;20040;-64
2022/11/21 12:54:41;;;;;;;2.05;1.35;;;;;;;11.78;66.34;98947.16;5091951;28;20035;-64
2022/11/21 12:57:12;;;;;;;2.08;1.10;;;;;;;11.67;68.42;98946.00;5091924;28;20031;-64
2022/11/21 12:59:53;;;;;;;1.85;1.13;;;;;;;11.77;66.83;98944.69;5067123;28;20056;-64
2022/11/21 13:02:50;;;;;;;4.20;1.00;;;;;;;11.74;66.73;98932.63;5051458;28;20040;-65
2022/11/21 13:05:23;;;;;;;0.75;0.68;;;;;;;11.73;68.18;98924.81;5051449;28;20057;-64
2022/11/21 13:07:56;;;;;;;2.90;0.98;;;;;;;11.80;67.48;98917.59;5051501;28;20040;-64
2022/11/21 13:10:22;;;;;;;2.38;1.00;;;;;;;11.91;67.17;98914.28;5051111;28;20444;-63
2022/11/21 13:12:57;;;;;;;1.00;0.77;;;;;;;11.93;64.75;98912.22;5051349;28;20045;-64
2022/11/21 13:15:37;;;;;;;1.98;0.93;;;;;;;11.85;66.66;98907.94;5051404;28;20066;-64
2022/11/21 13:18:20;;;;;;;3.60;0.75;;;;;;;11.88;65.68;98904.06;5051390;28;20440;-64
2022/11/21 13:20:48;;;;;;;3.85;1.15;;;;;;;11.96;64.09;98906.47;5051063;28;20040;-64
2022/11/21 13:23:36;;;;;;;0.43;0.43;;;;;;;11.68;62.58;98904.94;5051259;28;20041;-64
2022/11/21 13:26:21;;;;;;;5.35;1.50;;;;;;;11.57;61.79;98894.94;5051718;28;20033;-65
2022/11/21 13:28:47;;;;;;;3.03;1.02;;;;;;;11.43;62.98;98888.03;5051297;28;20040;-65
2022/11/21 13:31:32;;;;;;;2.83;1.00;;;;;;;11.18;63.88;98892.41;5033096;28;20176;-65
2022/11/21 13:33:58;;;;;;;1.75;1.13;;;;;;;11.05;65.22;98886.09;5051209;28;20059;-65
2022/11/21 13:36:29;;;;;;;8.27;1.48;;;;;;;10.95;66.58;98887.53;5051443;28;20033;-64
2022/11/21 13:38:57;;;;;;;2.95;1.15;;;;;;;11.02;68.16;98877.69;5051229;28;20070;-65
2022/11/21 13:44:28;;;;;;;6.75;1.60;;;;;;;10.90;64.92;98877.53;5057728;28;20041;-64
2022/11/21 13:47:08;;;;;;;4.22;1.50;;;;;;;10.87;66.72;98870.75;5055262;28;20037;-65
2022/11/21 13:49:47;;;;;;;6.95;1.73;;;;;;;10.60;67.18;98864.66;5055406;28;20029;-64
2022/11/21 13:52:25;;;;;;;3.40;1.20;;;;;;;10.63;66.25;98862.59;5055258;28;20087;-64
2022/11/21 13:55:09;;;;;;;4.10;0.90;;;;;;;10.55;67.59;98864.47;5055142;28;20033;-64
2022/11/21 13:58:13;;;;;;;1.45;0.60;;;;;;;10.38;68.09;98857.13;5055052;28;20131;-64
2022/11/21 14:01:16;;;;;;;1.95;0.90;;;;;;;10.27;69.91;98855.88;5031218;28;20045;-64
2022/11/21 14:04:04;;;;;;;5.40;1.30;;;;;;;10.22;69.48;98842.31;5054601;28;20292;-66
2022/11/21 14:06:36;;;;;;;3.25;1.08;;;;;;;10.24;69.01;98843.00;5054750;28;20056;-63
2022/11/21 14:09:22;;;;;;;1.33;1.23;;;;;;;10.18;69.13;98835.78;5036721;28;20138;-64
2022/11/21 14:12:02;;;;;;;6.70;1.13;;;;;;;10.14;69.63;98824.72;5054361;28;20513;-63
2022/11/21 14:14:44;;;;;;;4.53;1.00;;;;;;;10.20;69.40;98828.41;5054631;28;20283;-64
2022/11/21 14:17:26;;;;;;;1.25;0.77;;;;;;;10.08;70.54;98809.59;5054621;28;20528;-63
2022/11/21 14:19:54;;;;;;;2.20;1.23;;;;;;;10.18;71.50;98796.69;5054471;28;20037;-62
2022/11/21 14:22:39;;;;;;;6.30;1.30;;;;;;;10.19;74.49;98787.69;5054328;28;20525;-65
2022/11/21 14:25:12;;;;;;;4.18;1.08;;;;;;;10.15;72.99;98782.97;5054416;28;20178;-63
2022/11/21 14:27:39;;;;;;;2.25;0.88;;;;;;;10.18;74.19;98775.41;5054489;28;20036;-65
2022/11/21 14:30:24;;;;;;;2.15;0.70;;;;;;;10.24;74.33;98766.63;5054210;28;20094;-64
2022/11/21 14:32:49;;;;;;;1.05;0.80;;;;;;;10.24;74.66;98760.50;5054205;28;20037;-65
2022/11/21 14:35:20;;;;;;;7.07;1.15;;;;;;;10.20;73.87;98761.91;5054110;28;20439;-65
2022/11/21 14:37:45;;;;;;;3.35;1.00;;;;;;;10.16;74.78;98758.00;5054112;28;20083;-63
2022/11/21 14:40:23;;;;;;;2.63;0.90;;;;;;;10.19;75.65;98749.63;5053958;28;20162;-65
2022/11/21 14:42:48;;;;;;;2.55;1.13;;;;;;;10.17;75.42;98735.69;5054155;28;20083;-64
2022/11/21 14:45:20;;;;;;;3.97;0.68;;;;;;;10.16;75.07;98724.22;5036029;28;20418;-69
2022/11/21 14:47:47;;;;;;;2.53;1.02;;;;;;;10.10;76.07;98727.72;5054202;28;20043;-65
2022/11/21 14:50:22;;;;;;;8.98;1.27;;;;;;;10.10;75.55;98711.75;5053542;28;20493;-65
2022/11/21 14:52:55;;;;;;;3.97;1.10;;;;;;;10.12;75.68;98700.91;5036136;28;20040;-65
2022/11/21 14:55:25;;;;;;;4.57;1.15;;;;;;;10.07;74.82;98697.03;5053537;28;20095;-65
2022/11/21 14:57:51;;;;;;;5.43;1.25;;;;;;;10.04;75.02;98693.94;5053703;28;20048;-65
2022/11/21 15:00:23;;;;;;;6.57;0.95;;;;;;;10.00;75.11;98680.25;5053330;28;20070;-65
2022/11/21 15:02:58;;;;;;;4.70;1.50;;;;;;;9.97;75.80;98677.19;5053638;28;20056;-65
2022/11/21 15:05:32;;;;;;;5.85;1.63;;;;;;;9.92;76.31;98666.38;5053605;28;20486;-64
2022/11/21 15:07:59;;;;;;;4.03;1.50;;;;;;;9.84;76.89;98664.72;5053590;28;20488;-65
2022/11/21 15:10:30;;;;;;;7.03;1.77;;;;;;;9.82;76.94;98665.97;5065993;28;20453;-62
2022/11/21 15:13:05;;;;;;;2.40;1.20;;;;;;;9.70;77.09;98658.59;5039244;28;20086;-64
2022/11/21 15:15:37;;;;;;;2.45;1.00;;;;;;;9.71;77.87;98643.47;5073599;28;20089;-64
2022/11/21 15:18:05;;;;;;;6.03;1.50;;;;;;;9.62;77.84;98634.06;5073422;28;20098;-64
2022/11/21 15:20:31;;;;;;;3.50;1.30;;;;;;;9.57;77.50;98628.56;5073157;28;20043;-64
2022/11/21 15:22:59;;;;;;;2.33;1.17;;;;;;;9.56;77.78;98624.25;5072559;28;20028;-63
2022/11/21 15:25:27;;;;;;;5.55;1.73;;;;;;;9.51;77.18;98612.41;5073335;28;20036;-64
2022/11/21 15:27:59;;;;;;;2.28;1.13;;;;;;;9.46;76.83;98596.28;5073447;28;20053;-65
2022/11/21 15:30:32;;;;;;;5.88;1.77;;;;;;;9.39;76.73;98586.66;5073092;28;20493;-65
2022/11/21 15:33:08;;;;;;;2.70;1.00;;;;;;;9.37;77.98;98586.84;5073331;28;20501;-64
2022/11/21 15:35:36;;;;;;;12.63;2.05;;;;;;;9.26;78.10;98579.53;5073096;28;20036;-65
2022/11/21 15:38:12;;;;;;;4.97;2.25;;;;;;;9.20;79.10;98573.19;5073111;28;20085;-64
2022/11/21 15:40:37;;;;;;;6.03;1.38;;;;;;;9.13;79.35;98566.25;5054906;28;20109;-64
2022/11/21 15:43:03;;;;;;;1.80;1.08;;;;;;;9.10;79.63;98566.63;5073104;28;20032;-65
2022/11/21 15:45:28;;;;;;;2.97;1.40;;;;;;;9.03;79.75;98552.53;5073000;28;20044;-63
2022/11/21 15:47:55;;;;;;;3.58;1.33;;;;;;;8.96;79.29;98549.88;5072855;28;20396;-65
2022/11/21 15:50:25;;;;;;;2.78;0.90;;;;;;;8.85;80.62;98548.66;5072468;28;20044;-65
2022/11/21 15:52:51;;;;;;;4.38;1.42;;;;;;;8.78;81.25;98545.16;5072759;28;20056;-65
2022/11/21 15:55:24;;;;;;;5.05;1.15;;;;;;;8.70;81.33;98540.06;5072754;28;20101;-65
2022/11/21 15:57:49;;;;;;;4.43;1.42;;;;;;;8.69;80.84;98533.13;5038316;28;20029;-65
2022/11/21 16:00:16;;;;;;;2.70;1.42;;;;;;;8.62;81.34;98514.53;5072380;28;20045;-65
2022/11/21 16:02:41;;;;;;;1.45;0.95;;;;;;;8.52;80.90;98515.94;5072534;28;20505;-65
2022/11/21 16:05:12;;;;;;;7.00;1.88;;;;;;;8.44;82.49;98519.59;5071633;28;20036;-65
2022/11/21 16:07:37;;;;;;;1.90;1.02;;;;;;;8.39;83.22;98506.94;5072594;28;20062;-64
2022/11/21 16:10:03;;;;;;;3.83;1.38;;;;;;;8.31;82.61;98504.44;5072275;28;20032;-65
2022/11/21 16:12:29;;;;;;;4.40;1.40;;;;;;;8.25;83.61;98491.16;5072172;28;20045;-65
2022/11/21 16:14:54;;;;;;;7.30;2.00;;;;;;;8.20;83.99;98483.78;5072220;28;20044;-67
2022/11/21 16:17:20;;;;;;;3.10;1.42;;;;;;;8.19;84.45;98487.47;5072277;28;20060;-66
2022/11/21 16:19:45;;;;;;;3.15;1.58;;;;;;;8.11;84.79;98482.34;5072248;28;20028;-66
2022/11/21 16:22:11;;;;;;;5.40;2.25;;;;;;;8.06;85.00;98482.13;5071970;28;20098;-65
2022/11/21 16:24:36;;;;;;;2.45;1.17;;;;;;;7.98;85.61;98482.31;5054211;28;20037;-65
2022/11/21 16:27:01;;;;;;;3.53;1.55;;;;;;;7.96;85.92;98473.75;5072143;28;20378;-65
2022/11/21 16:29:27;;;;;;;5.78;2.13;;;;;;;7.86;85.41;98459.03;5054058;28;20135;-65
2022/11/21 16:31:54;;;;;;;2.65;1.33;;;;;;;7.84;84.83;98455.75;5071686;28;20036;-66
2022/11/21 16:34:21;;;;;;;4.65;2.05;;;;;;;7.81;85.34;98447.38;5071722;28;20040;-65
2022/11/21 16:36:47;;;;;;;2.95;1.35;;;;;;;7.78;84.55;98422.09;5071994;28;20036;-65
2022/11/21 16:39:12;;;;;;;3.17;1.63;;;;;;;7.74;84.84;98426.16;5072100;28;20032;-65
2022/11/21 16:41:39;;;;;;;2.50;1.45;;;;;;;7.69;86.08;98431.22;5071690;28;20489;-66
2022/11/21 16:44:12;;;;;;;5.03;1.70;;;;;;;7.57;86.49;98440.78;5071769;28;20438;-65
2022/11/21 16:46:44;;;;;;;4.05;1.63;;;;;;;7.56;86.61;98434.66;5071993;28;20131;-65
2022/11/21 16:49:11;;;;;;;2.50;1.27;;;;;;;7.57;86.28;98433.66;5053925;28;20036;-66
2022/11/21 16:51:36;;;;;;;1.70;1.30;;;;;;;7.49;86.38;98443.59;5071929;28;20076;-65
2022/11/21 16:54:02;;;;;;;1.20;1.08;;;;;;;7.53;87.19;98434.22;5071768;28;20105;-65
2022/11/21 16:56:27;;;;;;;2.45;1.15;;;;;;;7.43;86.16;98423.16;5071645;28;20131;-65
2022/11/21 16:58:53;;;;;;;3.67;1.35;;;;;;;7.44;85.46;98403.63;5071862;28;20044;-65
2022/11/21 17:01:23;;;;;;;2.70;1.15;;;;;;;7.43;85.31;98399.31;5071766;28;20032;-65
2022/11/21 17:03:50;;;;;;;3.10;1.88;;;;;;;7.32;86.14;98417.44;5071762;28;20543;-64
2022/11/21 17:06:18;;;;;;;3.00;1.13;;;;;;;7.26;85.40;98441.25;5071681;28;20044;-64
2022/11/21 17:08:43;;;;;;;2.85;1.30;;;;;;;7.33;84.29;98439.44;5071598;28;20035;-66
2022/11/21 17:11:12;;;;;;;2.63;1.83;;;;;;;7.35;85.72;98426.81;5071303;28;20553;-64
2022/11/21 17:13:38;;;;;;;2.15;1.38;;;;;;;7.34;85.12;98426.00;5071687;28;20116;-64
2022/11/21 17:16:04;;;;;;;1.73;1.23;;;;;;;7.29;85.40;98414.34;5071568;28;20414;-63
2022/11/21 17:18:30;;;;;;;1.45;1.35;;;;;;;7.31;85.71;98413.16;5071457;28;20040;-64
2022/11/21 17:20:55;;;;;;;9.23;2.28;;;;;;;7.31;85.49;98399.91;5071208;28;20115;-63
2022/11/21 17:23:20;;;;;;;6.97;2.53;;;;;;;7.31;85.42;98393.81;5071415;28;20036;-61
2022/11/21 17:25:46;;;;;;;4.65;2.42;;;;;;;7.28;85.55;98392.34;5071398;28;20068;-64
2022/11/21 17:28:11;;;;;;;2.22;2.00;;;;;;;7.26;86.40;98393.56;5071428;28;20473;-64
2022/11/21 17:30:42;;;;;;;3.58;1.60;;;;;;;7.20;86.65;98395.16;5071040;28;20036;-64
2022/11/21 17:35:34;;;;;;;4.70;1.90;;;;;;;7.15;87.50;98378.22;5112968;22;20044;-70
2022/11/21 17:37:59;;;;;;;2.92;1.60;;;;;;;7.09;87.75;98366.59;5073321;28;20492;-69
2022/11/21 17:40:24;;;;;;;3.28;2.08;;;;;;;7.09;90.38;98363.94;5091083;28;20043;-69
2022/11/21 17:42:50;;;;;;;2.50;1.63;;;;;;;6.92;91.06;98360.81;5091392;28;20032;-70
2022/11/21 17:45:15;;;;;;;3.85;2.35;;;;;;;6.98;90.93;98360.03;5091231;28;20063;-69
2022/11/21 17:47:41;;;;;;;7.85;3.13;;;;;;;6.95;92.36;98349.81;5073226;28;20044;-70
2022/11/21 17:50:06;;;;;;;1.98;1.10;;;;;;;6.88;89.89;98348.16;5091135;28;20044;-69
2022/11/21 17:52:32;;;;;;;6.22;1.92;;;;;;;6.79;90.95;98329.81;5090986;28;20036;-69